Portada
METAR-TAF:

METAR-TAF

Aeroports :

Montes Claros, Minas Gerais, Brasil

latitud: 16-43S, longitud: 043-52W, altitud: 646 m

Observació

L'informe es va fer fa 1 hora i 21 minuts, a les 20:00 UTC
Vent calma
Temperatura 28°C
Humitat 48%
Pressió 1016 hPa
Visibilitat 10 km o més
Núvols disperses a una alçada de 4200 ft
Escasses núvols a una alçada de 4500 ft, Cumulus congestus.

METAR: SBMK 242000Z 00000KT 9999 SCT042 FEW045TCU 28/16 Q1016

Hora: 18:21 (21:21 UTC)


TAF: manca

Observacions i pronòstics meteorològics de més de 4000 aeroports (METAR i TAF).

Les estacions disponibles són els punts grocs i vermells al mapa.

Posi el ratolí al punt desitjat per veure el nom de l'estació.

Feu clic per veure les observacions i els pronòstics meteorològics.

Per canviar el mapa: feu clic els botons verds amb una creu de color negre per apropar; al botó verd amb un guió per allunyar la imatge; o en les fletxes verdes per a mapes adjacents.


METAR-TAF: